Terminal Aerodrome Forecast
Issued by NWS

Home | Current Version | Previous Version | Text Only | Print | Product List | Glossary On
Versions: 1 2 3 4 5 6 7 8 9 10 11 12 13 14 15 16 17 18 19 20
000
FTUS45 KBOU 250525
TAFAPA
TAF
KAPA 250525Z 2506/2606 15006KT P6SM FEW150
     FM250700 18008KT P6SM FEW140 SCT220
     FM251500 25007KT P6SM SCT120 BKN200
     FM251800 30007KT P6SM FEW140 SCT220
     FM252100 03010KT P6SM FEW140 SCT220
     FM252300 10008KT P6SM FEW150 SCT220=

USA.gov is the U.S. government's official web portal to all federal, state and local government web resources and services.